Time;durP1;ratioP1;P1;durP2;ratioP2;P2;SDS_P1;SDS_P2;PMS_P1;PMS_P2;Temp;Humidity;BMP_temperature;BMP_pressure;BME280_temperature;BME280_humidity;BME280_pressure;Samples;Min_cycle;Max_cycle;Signal;HPM_P1;HPM_P2
2021/07/26 00:01:32;;;;;;;2.20;1.70;;;21.80;99.90;;;;;;4133205;28;20069;-73
2021/07/26 00:03:33;;;;;;;1.98;1.60;;;21.80;99.90;;;;;;4146771;28;20038;-73
2021/07/26 00:05:34;;;;;;;2.30;1.77;;;21.80;99.90;;;;;;4133738;28;20065;-72
2021/07/26 00:07:34;;;;;;;2.17;1.70;;;21.70;99.90;;;;;;4148444;28;20037;-73
2021/07/26 00:09:36;;;;;;;2.97;1.85;;;21.70;99.90;;;;;;4145006;28;20043;-73
2021/07/26 00:11:37;;;;;;;4.03;1.70;;;21.70;99.90;;;;;;4147634;28;20104;-73
2021/07/26 00:13:39;;;;;;;2.33;1.77;;;21.70;99.90;;;;;;4148542;28;20285;-73
2021/07/26 00:15:41;;;;;;;2.05;1.75;;;21.70;99.90;;;;;;4131175;28;20042;-73
2021/07/26 00:17:42;;;;;;;2.67;1.67;;;21.60;99.90;;;;;;4148923;28;20037;-73
2021/07/26 00:19:42;;;;;;;1.70;1.60;;;21.60;99.90;;;;;;4130609;28;20168;-73
2021/07/26 00:21:43;;;;;;;4.22;1.95;;;21.60;99.90;;;;;;4118436;28;20038;-73
2021/07/26 00:23:43;;;;;;;2.95;2.10;;;21.60;99.90;;;;;;4148178;28;20044;-73
2021/07/26 00:25:44;;;;;;;4.07;2.05;;;21.60;99.90;;;;;;4149676;28;20095;-72
2021/07/26 00:27:45;;;;;;;3.42;2.63;;;21.50;99.90;;;;;;4144228;28;20038;-72
2021/07/26 00:29:45;;;;;;;3.47;2.53;;;21.50;99.90;;;;;;4146857;28;20041;-73
2021/07/26 00:31:46;;;;;;;4.30;3.03;;;21.50;99.90;;;;;;4124675;28;20042;-73
2021/07/26 00:34:15;;;;;;;4.63;3.17;;;21.40;99.90;;;;;;4151427;28;20772;-72
2021/07/26 00:36:15;;;;;;;6.28;3.13;;;21.40;99.90;;;;;;4145458;28;20050;-73
2021/07/26 00:38:16;;;;;;;3.58;2.80;;;21.30;99.90;;;;;;4137901;28;20041;-73
2021/07/26 00:40:17;;;;;;;4.07;2.85;;;21.30;99.90;;;;;;4146907;28;20110;-73
2021/07/26 00:42:18;;;;;;;4.82;2.58;;;21.30;99.90;;;;;;4144358;28;20513;-73
2021/07/26 00:44:22;;;;;;;4.22;2.90;;;21.30;99.90;;;;;;4129425;28;20077;-72
2021/07/26 00:46:23;;;;;;;4.13;2.55;;;21.20;99.90;;;;;;4130770;28;20065;-73
2021/07/26 00:48:23;;;;;;;5.32;3.05;;;21.20;99.90;;;;;;4145835;28;20053;-73
2021/07/26 00:50:24;;;;;;;4.00;2.55;;;21.10;99.90;;;;;;4140098;28;20121;-73
2021/07/26 00:52:25;;;;;;;3.60;2.22;;;21.10;99.90;;;;;;4130025;28;20101;-73
2021/07/26 00:54:29;;;;;;;4.65;2.88;;;21.10;99.90;;;;;;4145122;28;20034;-73
2021/07/26 00:56:30;;;;;;;5.47;2.95;;;21.00;99.90;;;;;;4148355;28;20030;-72
2021/07/26 00:58:31;;;;;;;4.65;2.75;;;21.00;99.90;;;;;;4146197;28;20041;-73
2021/07/26 01:00:31;;;;;;;4.05;2.85;;;21.00;99.90;;;;;;4147835;28;20034;-72
2021/07/26 01:02:32;;;;;;;4.00;2.70;;;21.00;99.90;;;;;;4137666;28;20108;-73
2021/07/26 01:04:33;;;;;;;4.00;2.70;;;21.00;99.90;;;;;;4142892;28;20033;-73
2021/07/26 01:06:34;;;;;;;3.92;2.63;;;20.90;99.90;;;;;;4150303;28;20034;-72
2021/07/26 01:08:35;;;;;;;4.90;2.78;;;20.90;99.90;;;;;;4148200;28;20037;-73
2021/07/26 01:10:35;;;;;;;4.85;2.53;;;20.90;99.90;;;;;;4148328;28;20050;-72
2021/07/26 01:12:36;;;;;;;4.25;2.80;;;20.80;99.90;;;;;;4143311;28;20037;-74
2021/07/26 01:14:37;;;;;;;4.80;2.80;;;20.80;99.90;;;;;;4152494;28;20048;-73
2021/07/26 01:16:38;;;;;;;6.88;2.75;;;20.80;99.90;;;;;;4146955;28;20103;-73
2021/07/26 01:18:39;;;;;;;6.03;2.90;;;20.90;99.90;;;;;;4150479;28;20691;-73
2021/07/26 01:20:40;;;;;;;3.28;2.58;;;20.90;99.90;;;;;;4144139;28;20382;-73
2021/07/26 01:22:40;;;;;;;6.40;2.40;;;20.80;99.90;;;;;;4127069;28;20367;-73
2021/07/26 01:24:41;;;;;;;5.22;2.50;;;20.80;99.90;;;;;;4150129;28;20033;-73
2021/07/26 01:26:41;;;;;;;4.28;2.90;;;20.90;99.90;;;;;;4146873;28;20037;-73
2021/07/26 01:28:46;;;;;;;4.38;2.42;;;20.90;99.90;;;;;;4131533;28;20665;-73
2021/07/26 01:30:48;;;;;;;2.88;2.25;;;20.90;99.90;;;;;;4148953;28;20061;-73
2021/07/26 01:32:49;;;;;;;2.97;2.50;;;20.90;99.90;;;;;;4144246;28;20041;-73
2021/07/26 01:34:51;;;;;;;4.60;2.50;;;20.90;99.90;;;;;;4147103;28;20078;-73
2021/07/26 01:36:52;;;;;;;4.80;2.50;;;20.90;99.90;;;;;;4145478;28;20034;-73
2021/07/26 01:38:53;;;;;;;2.67;2.05;;;20.90;99.90;;;;;;4149589;28;20117;-73
2021/07/26 01:40:57;;;;;;;5.93;2.95;;;20.90;99.90;;;;;;4126259;28;20104;-73
2021/07/26 01:43:02;;;;;;;4.00;2.55;;;20.80;99.90;;;;;;4132251;28;20086;-73
2021/07/26 01:45:03;;;;;;;2.80;2.33;;;20.80;99.90;;;;;;4130035;28;20050;-73
2021/07/26 01:47:05;;;;;;;2.35;2.08;;;20.80;99.90;;;;;;4150141;28;20386;-73
2021/07/26 01:49:20;;;;;;;4.25;2.40;;;20.80;99.90;;;;;;4127273;28;20536;-73
2021/07/26 01:51:42;;;;;;;4.07;2.40;;;20.80;99.90;;;;;;4124947;28;20097;-72
2021/07/26 01:53:44;;;;;;;6.80;2.20;;;20.80;99.90;;;;;;4141256;28;20038;-73
2021/07/26 01:55:44;;;;;;;6.45;2.83;;;20.80;99.90;;;;;;4142201;28;20136;-73
2021/07/26 01:57:45;;;;;;;4.05;2.47;;;20.80;99.90;;;;;;4148392;28;20053;-73
2021/07/26 01:59:46;;;;;;;2.90;2.28;;;20.80;99.90;;;;;;4134767;28;20034;-73
2021/07/26 02:01:47;;;;;;;2.92;1.95;;;20.90;99.90;;;;;;4150323;28;20131;-73
2021/07/26 02:03:48;;;;;;;2.35;2.00;;;20.90;99.90;;;;;;4151505;28;20112;-72
2021/07/26 02:05:48;;;;;;;3.75;2.47;;;20.90;99.90;;;;;;4146103;28;20115;-72
2021/07/26 02:07:49;;;;;;;3.00;1.85;;;20.90;99.90;;;;;;4150858;28;20061;-73
2021/07/26 02:09:50;;;;;;;3.67;2.20;;;20.90;99.90;;;;;;4112737;28;20117;-73
2021/07/26 02:11:51;;;;;;;3.45;1.83;;;20.90;99.90;;;;;;4128849;28;20038;-72
2021/07/26 02:13:52;;;;;;;4.13;2.15;;;21.00;99.90;;;;;;4148673;28;20494;-73
2021/07/26 02:15:53;;;;;;;2.75;2.00;;;21.00;99.90;;;;;;4143393;28;20034;-72
2021/07/26 02:17:53;;;;;;;3.25;2.17;;;21.00;99.90;;;;;;4148161;28;20517;-73
2021/07/26 02:19:54;;;;;;;2.05;1.85;;;21.00;99.90;;;;;;4143258;28;20038;-73
2021/07/26 02:21:54;;;;;;;4.82;2.28;;;21.00;99.90;;;;;;4130687;28;20041;-73
2021/07/26 02:23:55;;;;;;;2.10;1.80;;;21.00;99.90;;;;;;4143095;28;20030;-72
2021/07/26 02:25:56;;;;;;;3.65;2.13;;;21.00;99.90;;;;;;4125131;28;20387;-73
2021/07/26 02:27:57;;;;;;;3.10;2.00;;;21.00;99.90;;;;;;4148740;28;20068;-73
2021/07/26 02:29:58;;;;;;;2.97;2.20;;;21.00;99.90;;;;;;4128510;28;20042;-73
2021/07/26 02:31:58;;;;;;;3.17;2.17;;;21.00;99.90;;;;;;4141871;28;20125;-73
2021/07/26 02:33:59;;;;;;;4.88;2.40;;;21.00;99.90;;;;;;4129986;28;20033;-73
2021/07/26 02:35:59;;;;;;;3.55;2.55;;;21.00;99.90;;;;;;4126464;28;20039;-73
2021/07/26 02:38:01;;;;;;;3.50;2.22;;;21.00;99.90;;;;;;4141557;28;20054;-72
2021/07/26 02:40:02;;;;;;;2.42;2.00;;;21.00;99.90;;;;;;4146256;28;20029;-73
2021/07/26 02:42:04;;;;;;;3.28;2.40;;;20.90;99.90;;;;;;4128771;28;20181;-73
2021/07/26 02:44:04;;;;;;;2.97;1.90;;;20.90;99.90;;;;;;4139796;28;20117;-73
2021/07/26 02:46:06;;;;;;;3.28;2.28;;;21.00;99.90;;;;;;4130295;28;20039;-73
2021/07/26 02:48:08;;;;;;;3.53;2.47;;;20.90;99.90;;;;;;4149815;28;20389;-73
2021/07/26 02:50:09;;;;;;;4.63;2.20;;;20.90;99.90;;;;;;4146499;28;20055;-73
2021/07/26 02:52:09;;;;;;;4.30;2.30;;;20.90;99.90;;;;;;4131676;28;20943;-73
2021/07/26 02:54:10;;;;;;;4.45;2.78;;;20.90;99.90;;;;;;4126863;28;20038;-73
2021/07/26 02:56:11;;;;;;;6.80;2.60;;;20.90;99.90;;;;;;4147545;28;20371;-73
2021/07/26 02:58:11;;;;;;;3.55;2.30;;;20.80;99.90;;;;;;4130398;28;20026;-73
2021/07/26 03:00:12;;;;;;;5.57;2.45;;;20.80;99.90;;;;;;4144135;28;20041;-73
2021/07/26 03:02:13;;;;;;;4.72;2.72;;;20.80;99.90;;;;;;4126584;28;20431;-73
2021/07/26 03:04:13;;;;;;;4.43;3.20;;;20.70;99.90;;;;;;4142393;28;20113;-73
2021/07/26 03:06:18;;;;;;;4.28;2.80;;;20.60;99.90;;;;;;4145554;28;20042;-73
2021/07/26 03:08:19;;;;;;;4.40;2.38;;;20.50;99.90;;;;;;4132329;28;20510;-72
2021/07/26 03:10:20;;;;;;;4.85;2.83;;;20.50;99.90;;;;;;4143233;28;20040;-73
2021/07/26 03:12:20;;;;;;;5.60;3.03;;;20.50;99.90;;;;;;4148397;28;20063;-73
2021/07/26 03:14:21;;;;;;;6.78;2.78;;;20.40;99.90;;;;;;4129273;28;20469;-73
2021/07/26 03:16:21;;;;;;;5.35;3.03;;;20.40;99.90;;;;;;4146990;28;20045;-73
2021/07/26 03:18:23;;;;;;;3.58;2.72;;;20.40;99.90;;;;;;4142822;28;20042;-73
2021/07/26 03:20:23;;;;;;;4.82;2.75;;;20.40;99.90;;;;;;4131804;28;20186;-73
2021/07/26 03:22:48;;;;;;;6.00;3.55;;;20.40;99.90;;;;;;4152973;28;20105;-73
2021/07/26 03:24:49;;;;;;;5.22;3.67;;;20.40;99.90;;;;;;4136602;28;20029;-73
2021/07/26 03:26:49;;;;;;;4.55;2.83;;;20.40;99.90;;;;;;4149365;28;20073;-73
2021/07/26 03:28:50;;;;;;;6.43;3.00;;;20.30;99.90;;;;;;4146065;28;20555;-72
2021/07/26 03:30:51;;;;;;;3.22;2.80;;;20.30;99.90;;;;;;4147931;28;20050;-73
2021/07/26 03:32:52;;;;;;;4.85;2.88;;;20.30;99.90;;;;;;4135252;28;20038;-73
2021/07/26 03:34:53;;;;;;;7.65;3.00;;;20.40;99.90;;;;;;4126966;28;20475;-73
2021/07/26 03:36:53;;;;;;;4.05;3.05;;;20.40;99.90;;;;;;4154652;28;20596;-73
2021/07/26 03:38:54;;;;;;;4.47;3.00;;;20.40;99.90;;;;;;4148775;28;20029;-73
2021/07/26 03:40:54;;;;;;;5.15;3.00;;;20.40;99.90;;;;;;4133959;28;20026;-73
2021/07/26 03:42:56;;;;;;;2.95;2.55;;;20.40;99.90;;;;;;4130399;28;20113;-73
2021/07/26 03:44:57;;;;;;;2.50;2.15;;;20.40;99.90;;;;;;4150024;28;20037;-73
2021/07/26 03:47:00;;;;;;;2.97;2.22;;;20.40;99.90;;;;;;4147560;28;20038;-72
2021/07/26 03:49:01;;;;;;;3.38;2.47;;;20.40;99.90;;;;;;4136375;28;20042;-73
2021/07/26 03:51:01;;;;;;;4.28;2.90;;;20.40;99.90;;;;;;4148724;28;20044;-73
2021/07/26 03:53:02;;;;;;;2.58;2.08;;;20.40;99.90;;;;;;4144050;28;20044;-73
2021/07/26 03:55:03;;;;;;;3.67;2.50;;;20.40;99.90;;;;;;4154044;28;20397;-73
2021/07/26 03:57:04;;;;;;;4.07;2.78;;;20.40;99.90;;;;;;4148597;28;20038;-73
2021/07/26 03:59:05;;;;;;;3.58;2.17;;;20.40;99.90;;;;;;4153186;28;20505;-73
2021/07/26 04:01:05;;;;;;;4.07;2.63;;;20.40;99.90;;;;;;4152471;28;20068;-73
2021/07/26 04:03:19;;;;;;;4.85;2.70;;;20.40;99.90;;;;;;4134168;28;20399;-72
2021/07/26 04:05:35;;;;;;;5.43;2.90;;;20.50;99.90;;;;;;4154718;28;20049;-73
2021/07/26 04:07:38;;;;;;;3.42;2.30;;;20.50;99.90;;;;;;4147398;28;20106;-72
2021/07/26 04:09:43;;;;;;;4.47;2.97;;;20.50;99.90;;;;;;4144514;28;20038;-73
2021/07/26 04:11:46;;;;;;;3.35;2.35;;;20.40;99.90;;;;;;4150357;28;20048;-72
2021/07/26 04:13:54;;;;;;;4.20;2.65;;;20.40;99.90;;;;;;4147026;28;20354;-72
2021/07/26 04:15:55;;;;;;;2.80;2.38;;;20.40;99.90;;;;;;4131077;28;20042;-73
2021/07/26 04:17:56;;;;;;;4.03;2.38;;;20.40;99.90;;;;;;4148779;28;20367;-73
2021/07/26 04:19:56;;;;;;;3.03;2.17;;;20.40;99.90;;;;;;4153724;28;20135;-73
2021/07/26 04:21:57;;;;;;;4.70;2.63;;;20.50;99.90;;;;;;4130146;28;20517;-73
2021/07/26 04:23:59;;;;;;;4.47;2.80;;;20.50;99.90;;;;;;4126952;28;20038;-73
2021/07/26 04:26:00;;;;;;;4.73;2.67;;;20.50;99.90;;;;;;4147986;28;20486;-73
2021/07/26 04:28:00;;;;;;;3.63;2.30;;;20.50;99.90;;;;;;4130577;28;20045;-72
2021/07/26 04:30:03;;;;;;;4.95;2.55;;;20.50;99.90;;;;;;4132094;28;20428;-72
2021/07/26 04:32:04;;;;;;;4.45;2.50;;;20.50;99.90;;;;;;4149140;28;20390;-73
2021/07/26 04:34:04;;;;;;;3.60;2.38;;;20.50;99.90;;;;;;4149947;28;20053;-72
2021/07/26 04:36:05;;;;;;;4.88;2.80;;;20.50;99.90;;;;;;4153040;28;20504;-73
2021/07/26 04:38:06;;;;;;;4.60;2.70;;;20.50;99.90;;;;;;4131373;28;20030;-73
2021/07/26 04:40:10;;;;;;;4.07;2.60;;;20.50;99.90;;;;;;4148794;28;20095;-73
2021/07/26 04:42:11;;;;;;;3.05;2.40;;;20.50;99.90;;;;;;4146742;28;20045;-73
2021/07/26 04:44:11;;;;;;;4.57;2.50;;;20.50;99.90;;;;;;4143585;28;20367;-73
2021/07/26 04:46:12;;;;;;;4.20;2.67;;;20.50;99.90;;;;;;4127925;28;20034;-73
2021/07/26 04:48:12;;;;;;;5.35;2.47;;;20.40;99.90;;;;;;4124906;28;20042;-73
2021/07/26 04:50:13;;;;;;;5.50;2.40;;;20.40;99.90;;;;;;4143910;28;20389;-72
2021/07/26 04:52:14;;;;;;;4.50;2.40;;;20.40;99.90;;;;;;4154524;28;20030;-73
2021/07/26 04:54:14;;;;;;;5.57;2.85;;;20.40;99.90;;;;;;4152546;28;20025;-73
2021/07/26 04:56:15;;;;;;;3.97;2.70;;;20.40;99.90;;;;;;4134914;28;20034;-73
2021/07/26 04:58:15;;;;;;;3.30;2.22;;;20.40;99.90;;;;;;4143753;28;20069;-72
2021/07/26 05:00:16;;;;;;;4.53;2.55;;;20.40;99.90;;;;;;4151817;28;20022;-73
2021/07/26 05:02:17;;;;;;;3.85;2.67;;;20.40;99.90;;;;;;4134306;28;20180;-72
2021/07/26 05:04:17;;;;;;;5.53;2.22;;;20.40;99.90;;;;;;4149434;28;20026;-73
2021/07/26 05:06:18;;;;;;;4.78;2.75;;;20.40;99.90;;;;;;4133058;28;20045;-73
2021/07/26 05:08:19;;;;;;;4.13;2.70;;;20.40;99.90;;;;;;4154631;28;20033;-73
2021/07/26 05:10:20;;;;;;;4.72;2.78;;;20.40;99.90;;;;;;4144429;28;21497;-73
2021/07/26 05:12:20;;;;;;;2.97;2.30;;;20.40;99.90;;;;;;4154028;28;20375;-73
2021/07/26 05:14:21;;;;;;;4.13;2.13;;;20.40;99.90;;;;;;4153976;28;20639;-73
2021/07/26 05:16:21;;;;;;;6.05;2.40;;;20.50;99.90;;;;;;4143706;28;20053;-72
2021/07/26 05:18:23;;;;;;;3.47;2.38;;;20.50;99.90;;;;;;4126330;28;20030;-73
2021/07/26 05:20:23;;;;;;;2.45;1.95;;;20.50;99.90;;;;;;4134615;28;20113;-73
2021/07/26 05:22:24;;;;;;;3.50;2.10;;;20.50;99.90;;;;;;4147347;28;20026;-73
2021/07/26 05:24:25;;;;;;;2.70;2.17;;;20.50;99.90;;;;;;4128621;28;20035;-72
2021/07/26 05:26:25;;;;;;;3.30;2.35;;;20.60;99.90;;;;;;4144158;28;20076;-73
2021/07/26 05:28:26;;;;;;;3.50;2.22;;;20.50;99.90;;;;;;4140475;28;20447;-73
2021/07/26 05:30:26;;;;;;;2.50;2.10;;;20.60;99.90;;;;;;4146057;28;20025;-72
2021/07/26 05:32:27;;;;;;;3.47;2.22;;;20.60;99.90;;;;;;4146189;28;20061;-73
2021/07/26 05:34:28;;;;;;;5.38;2.50;;;20.60;99.90;;;;;;4148840;28;20091;-72
2021/07/26 05:36:29;;;;;;;4.90;2.67;;;20.70;99.90;;;;;;4148277;28;20034;-73
2021/07/26 05:38:29;;;;;;;5.35;2.85;;;20.70;99.90;;;;;;4143796;28;20042;-73
2021/07/26 05:40:30;;;;;;;3.75;2.42;;;20.70;99.90;;;;;;4128360;28;20489;-73
2021/07/26 05:42:31;;;;;;;3.47;2.28;;;20.70;99.90;;;;;;4112511;28;20035;-73
2021/07/26 05:44:31;;;;;;;3.85;2.33;;;20.70;99.90;;;;;;4148092;28;20034;-73
2021/07/26 05:46:32;;;;;;;4.38;2.72;;;20.80;99.90;;;;;;4130301;28;20030;-72
2021/07/26 05:48:32;;;;;;;3.03;2.08;;;20.80;99.90;;;;;;4136541;28;20029;-73
2021/07/26 05:50:33;;;;;;;3.80;2.40;;;20.80;99.90;;;;;;4131443;28;20035;-72
2021/07/26 05:52:35;;;;;;;3.50;2.38;;;20.70;99.90;;;;;;4150404;28;20034;-73
2021/07/26 05:54:35;;;;;;;8.25;3.00;;;20.80;99.90;;;;;;4148034;28;20092;-73
2021/07/26 05:56:43;;;;;;;5.72;2.33;;;20.80;99.90;;;;;;4129800;28;20674;-73
2021/07/26 05:58:46;;;;;;;6.60;2.42;;;20.80;99.90;;;;;;4148048;28;20048;-73
2021/07/26 06:00:57;;;;;;;4.15;2.28;;;20.80;99.90;;;;;;4140728;28;20941;-73
2021/07/26 06:02:59;;;;;;;3.92;2.22;;;20.80;99.90;;;;;;4128427;28;20033;-73
2021/07/26 06:05:00;;;;;;;3.65;2.55;;;20.90;99.90;;;;;;4135541;28;20100;-73
2021/07/26 06:07:01;;;;;;;4.65;2.33;;;20.90;99.90;;;;;;4150036;28;20038;-73
2021/07/26 06:09:01;;;;;;;3.58;2.10;;;20.90;99.90;;;;;;4123316;28;20126;-73
2021/07/26 06:11:03;;;;;;;4.90;2.30;;;21.00;99.90;;;;;;4140022;28;20100;-73
2021/07/26 06:13:05;;;;;;;2.83;2.00;;;21.00;99.90;;;;;;4139307;28;20039;-73
2021/07/26 06:15:06;;;;;;;2.70;2.03;;;21.10;99.90;;;;;;4138376;28;20053;-73
2021/07/26 06:17:07;;;;;;;3.70;2.20;;;21.20;99.90;;;;;;4142669;28;20112;-72
2021/07/26 06:19:09;;;;;;;3.83;2.23;;;21.40;99.90;;;;;;4142899;28;20433;-73
2021/07/26 06:21:10;;;;;;;3.45;2.00;;;21.50;99.90;;;;;;4133695;28;20117;-72
2021/07/26 06:23:11;;;;;;;6.53;2.30;;;21.60;99.90;;;;;;4143464;28;20120;-73
2021/07/26 06:25:12;;;;;;;6.80;2.42;;;21.70;99.90;;;;;;4112846;28;20046;-73
2021/07/26 06:27:13;;;;;;;2.58;2.10;;;21.70;99.90;;;;;;4132341;28;20042;-73
2021/07/26 06:29:14;;;;;;;5.88;1.90;;;21.70;99.90;;;;;;4113868;28;20706;-73
2021/07/26 06:31:15;;;;;;;2.60;1.95;;;21.80;99.90;;;;;;4118703;28;20084;-72
2021/07/26 06:33:16;;;;;;;5.55;2.55;;;21.90;99.90;;;;;;4133250;28;20098;-72
2021/07/26 06:35:17;;;;;;;3.53;2.25;;;22.00;99.90;;;;;;4130180;28;20525;-73
2021/07/26 06:37:18;;;;;;;3.83;2.30;;;22.10;99.90;;;;;;4114623;28;20031;-73
2021/07/26 06:39:18;;;;;;;3.78;2.20;;;22.10;99.90;;;;;;4128758;28;20043;-73
2021/07/26 06:41:19;;;;;;;4.45;1.88;;;22.30;99.90;;;;;;4135837;28;20037;-72
2021/07/26 06:43:20;;;;;;;2.85;2.10;;;22.40;99.90;;;;;;4130410;28;20034;-73
2021/07/26 06:45:20;;;;;;;3.63;2.33;;;22.50;99.90;;;;;;4101150;28;20043;-73
2021/07/26 06:47:21;;;;;;;4.05;2.28;;;22.50;99.90;;;;;;4134048;28;20039;-73
2021/07/26 06:49:21;;;;;;;4.95;2.22;;;22.50;99.90;;;;;;4128007;28;20433;-73
2021/07/26 06:51:22;;;;;;;5.82;2.65;;;22.40;99.90;;;;;;4098063;28;20046;-73
2021/07/26 06:53:24;;;;;;;3.83;2.20;;;22.20;99.90;;;;;;4133528;28;20168;-72
2021/07/26 06:55:25;;;;;;;3.50;2.23;;;22.20;99.90;;;;;;4112294;28;20049;-72
2021/07/26 06:57:25;;;;;;;3.35;2.17;;;22.10;99.90;;;;;;4135730;28;21284;-72
2021/07/26 06:59:26;;;;;;;3.10;2.10;;;22.00;99.90;;;;;;4135076;28;20033;-73
2021/07/26 07:01:27;;;;;;;5.95;2.50;;;21.90;99.90;;;;;;4132910;28;20040;-73
2021/07/26 07:03:28;;;;;;;4.18;2.47;;;21.90;99.90;;;;;;4135820;28;20483;-73
2021/07/26 07:05:28;;;;;;;2.78;2.30;;;21.80;99.90;;;;;;4101644;28;20173;-73
2021/07/26 07:07:29;;;;;;;3.22;2.28;;;21.80;99.90;;;;;;4135989;28;20157;-73
2021/07/26 07:09:30;;;;;;;5.32;2.88;;;21.70;99.90;;;;;;4116060;28;20118;-73
2021/07/26 07:11:30;;;;;;;6.93;2.53;;;21.60;99.90;;;;;;4108441;28;20046;-72
2021/07/26 07:13:33;;;;;;;7.43;2.20;;;21.70;99.90;;;;;;4115779;28;20039;-73
2021/07/26 07:15:34;;;;;;;2.58;2.08;;;21.60;99.90;;;;;;4137112;28;20033;-73
2021/07/26 07:17:36;;;;;;;2.25;1.65;;;21.60;99.90;;;;;;4133771;28;20054;-73
2021/07/26 07:19:41;;;;;;;5.13;1.98;;;21.60;99.90;;;;;;4137285;28;21184;-72
2021/07/26 07:21:41;;;;;;;2.55;2.15;;;21.50;99.90;;;;;;4118889;28;20038;-73
2021/07/26 07:23:42;;;;;;;3.10;1.92;;;21.60;99.90;;;;;;4132518;28;20044;-73
2021/07/26 07:25:43;;;;;;;2.00;1.80;;;21.60;99.90;;;;;;4130587;28;20054;-73
2021/07/26 07:27:43;;;;;;;2.95;1.75;;;21.60;99.90;;;;;;4137503;28;20537;-73
2021/07/26 07:29:44;;;;;;;2.90;1.95;;;21.70;99.90;;;;;;4118217;28;20054;-73
2021/07/26 07:31:44;;;;;;;2.65;1.85;;;21.70;99.90;;;;;;4131322;28;20107;-73
2021/07/26 07:33:45;;;;;;;2.33;1.90;;;21.60;99.90;;;;;;4119391;28;20553;-73
2021/07/26 07:35:46;;;;;;;3.13;2.20;;;21.70;99.90;;;;;;4133358;28;20142;-73
2021/07/26 07:37:46;;;;;;;3.95;2.40;;;21.70;99.90;;;;;;4117892;28;20034;-73
2021/07/26 07:39:47;;;;;;;2.67;2.10;;;21.70;99.90;;;;;;4119142;28;20112;-73
2021/07/26 07:41:48;;;;;;;5.43;1.75;;;21.80;99.90;;;;;;4129959;28;20615;-73
2021/07/26 07:43:49;;;;;;;2.22;1.90;;;21.80;99.90;;;;;;4113944;28;20034;-73
2021/07/26 07:45:50;;;;;;;2.72;2.03;;;21.80;99.90;;;;;;4101097;28;20083;-73
2021/07/26 07:47:53;;;;;;;4.07;2.28;;;21.90;99.90;;;;;;4133101;28;20061;-73
2021/07/26 07:49:54;;;;;;;6.05;2.28;;;21.90;99.90;;;;;;4132609;28;20591;-73
2021/07/26 07:51:55;;;;;;;2.72;1.90;;;21.80;99.90;;;;;;4113582;28;20038;-73
2021/07/26 07:53:58;;;;;;;2.72;1.80;;;21.80;99.90;;;;;;4116119;28;20035;-73
2021/07/26 07:55:59;;;;;;;3.03;2.40;;;21.90;99.90;;;;;;4116898;28;20075;-73
2021/07/26 07:58:01;;;;;;;3.00;2.00;;;21.90;99.90;;;;;;4129703;28;20034;-73
2021/07/26 08:00:08;;;;;;;3.67;1.98;;;21.90;99.90;;;;;;4114165;28;20026;-73
2021/07/26 08:02:09;;;;;;;4.65;2.25;;;21.90;99.90;;;;;;4133654;28;20211;-73
2021/07/26 08:04:09;;;;;;;3.33;2.13;;;21.90;99.90;;;;;;4117535;28;20687;-73
2021/07/26 08:06:10;;;;;;;2.90;2.13;;;21.90;99.90;;;;;;4133397;28;20173;-73
2021/07/26 08:08:11;;;;;;;3.33;2.08;;;21.90;99.90;;;;;;4131548;28;20692;-73
2021/07/26 08:10:12;;;;;;;5.03;2.20;;;22.00;99.90;;;;;;4114101;28;20141;-73
2021/07/26 08:12:14;;;;;;;2.13;1.73;;;22.00;99.90;;;;;;4116098;28;20149;-73
2021/07/26 08:14:14;;;;;;;2.47;1.95;;;22.10;99.90;;;;;;4119273;28;20262;-73
2021/07/26 08:16:15;;;;;;;3.65;1.77;;;22.10;99.90;;;;;;4113984;28;20114;-73
2021/07/26 08:18:15;;;;;;;5.53;2.28;;;22.20;99.90;;;;;;4127415;28;20816;-73
2021/07/26 08:20:17;;;;;;;4.03;2.03;;;22.30;99.90;;;;;;4115502;28;20078;-73
2021/07/26 08:22:19;;;;;;;2.63;1.90;;;22.30;99.90;;;;;;4117811;28;20043;-73
2021/07/26 08:24:19;;;;;;;2.92;1.70;;;22.40;99.90;;;;;;4138171;28;20042;-73
2021/07/26 08:26:21;;;;;;;3.40;2.05;;;22.50;99.90;;;;;;4116266;28;20046;-73
2021/07/26 08:28:22;;;;;;;2.97;2.38;;;22.60;99.90;;;;;;4134095;28;20538;-73
2021/07/26 08:30:25;;;;;;;2.42;2.20;;;22.60;99.90;;;;;;4116752;28;20062;-73
2021/07/26 08:32:25;;;;;;;3.50;2.00;;;22.70;99.90;;;;;;4120540;28;20778;-73
2021/07/26 08:34:26;;;;;;;2.50;2.30;;;22.60;99.90;;;;;;4113331;28;20027;-73
2021/07/26 08:36:26;;;;;;;1.88;1.50;;;22.70;99.90;;;;;;4131204;28;20038;-73
2021/07/26 08:38:27;;;;;;;3.47;2.13;;;22.70;99.90;;;;;;4133028;28;20414;-73
2021/07/26 08:40:29;;;;;;;2.15;1.95;;;22.70;99.90;;;;;;4115096;28;20407;-73
2021/07/26 08:42:30;;;;;;;3.53;2.60;;;22.70;99.90;;;;;;4133322;28;20026;-73
2021/07/26 08:44:33;;;;;;;3.00;2.00;;;22.70;99.90;;;;;;4117473;28;20033;-73
2021/07/26 08:46:36;;;;;;;3.20;2.20;;;22.70;99.90;;;;;;4136226;28;20032;-73
2021/07/26 08:48:36;;;;;;;3.80;2.03;;;22.70;99.90;;;;;;4133886;28;20127;-73
2021/07/26 08:50:38;;;;;;;2.30;1.80;;;22.70;99.90;;;;;;4131549;28;20034;-73
2021/07/26 08:52:47;;;;;;;1.65;1.40;;;22.80;99.90;;;;;;4117729;28;20046;-73
2021/07/26 08:54:49;;;;;;;3.58;2.00;;;22.80;99.90;;;;;;4137601;28;20052;-73
2021/07/26 08:56:51;;;;;;;2.08;1.80;;;22.90;99.90;;;;;;4118731;28;20035;-73
2021/07/26 08:58:51;;;;;;;3.83;2.22;;;22.90;99.90;;;;;;4117192;28;20065;-73
2021/07/26 09:00:54;;;;;;;2.75;2.15;;;22.80;99.90;;;;;;4134677;28;20100;-73
2021/07/26 09:02:55;;;;;;;2.55;2.10;;;22.90;99.90;;;;;;4115517;28;20118;-73
2021/07/26 09:04:56;;;;;;;4.00;2.15;;;22.90;99.90;;;;;;4139056;28;20072;-73
2021/07/26 09:06:57;;;;;;;3.90;2.28;;;22.90;99.90;;;;;;4131984;28;20651;-73
2021/07/26 09:08:58;;;;;;;2.42;2.10;;;22.90;99.90;;;;;;4136333;28;20037;-73
2021/07/26 09:11:06;;;;;;;3.00;2.15;;;23.00;99.90;;;;;;4113852;28;20514;-73
2021/07/26 09:13:08;;;;;;;3.00;1.88;;;23.10;99.90;;;;;;4112467;28;20046;-73
2021/07/26 09:15:24;;;;;;;3.35;2.42;;;23.10;99.90;;;;;;4133894;28;20038;-73
2021/07/26 09:17:35;;;;;;;2.63;1.90;;;23.20;99.90;;;;;;4114213;28;20038;-73
2021/07/26 09:19:58;;;;;;;2.47;1.75;;;23.30;99.90;;;;;;4134302;28;20112;-73
2021/07/26 09:21:59;;;;;;;;;;;23.40;99.90;;;;;;4133246;28;20045;-73
2021/07/26 09:24:03;;;;;;;2.03;1.60;;;23.50;99.90;;;;;;4115881;28;20036;-73
2021/07/26 09:26:29;;;;;;;2.03;1.75;;;23.60;99.90;;;;;;4113693;28;20027;-73
2021/07/26 09:28:33;;;;;;;1.52;1.42;;;23.60;99.90;;;;;;4132239;28;20572;-73
2021/07/26 09:30:46;;;;;;;3.33;1.52;;;23.60;99.90;;;;;;4134925;28;20054;-73
2021/07/26 09:32:47;;;;;;;1.95;1.42;;;23.60;99.90;;;;;;4115104;28;20046;-73
2021/07/26 09:34:50;;;;;;;1.85;1.65;;;23.60;99.90;;;;;;4130192;28;20053;-73
2021/07/26 09:36:51;;;;;;;2.35;1.63;;;23.50;99.90;;;;;;4131057;28;20044;-74
2021/07/26 09:38:56;;;;;;;1.90;1.52;;;23.40;99.90;;;;;;4133829;28;20034;-73
2021/07/26 09:40:57;;;;;;;2.42;1.85;;;23.50;99.90;;;;;;4133094;28;20103;-73
2021/07/26 09:43:17;;;;;;;2.85;1.92;;;23.50;99.90;;;;;;4115996;28;20053;-73
2021/07/26 09:45:25;;;;;;;1.50;1.40;;;23.50;99.90;;;;;;4112165;28;20038;-73
2021/07/26 09:47:26;;;;;;;2.05;1.77;;;23.60;99.90;;;;;;4133506;28;20601;-73
2021/07/26 09:49:26;;;;;;;2.17;1.58;;;23.60;99.90;;;;;;4135424;28;20117;-73
2021/07/26 09:51:27;;;;;;;4.25;2.00;;;23.70;99.90;;;;;;4115933;28;20045;-73
2021/07/26 09:53:29;;;;;;;2.83;2.08;;;23.80;99.90;;;;;;4132389;28;20037;-73
2021/07/26 09:55:30;;;;;;;3.15;1.55;;;23.90;99.90;;;;;;4112549;28;20039;-73
2021/07/26 09:57:30;;;;;;;2.50;1.85;;;24.00;99.90;;;;;;4117756;28;20031;-73
2021/07/26 09:59:31;;;;;;;1.88;1.60;;;24.00;99.90;;;;;;4134611;28;20034;-73
2021/07/26 10:01:33;;;;;;;2.40;1.50;;;24.10;99.90;;;;;;4126734;28;20042;-73
2021/07/26 10:03:38;;;;;;;2.45;1.52;;;24.10;99.90;;;;;;4133232;28;20030;-73
2021/07/26 10:05:41;;;;;;;1.35;1.25;;;24.10;99.90;;;;;;4132107;28;20108;-73
2021/07/26 10:07:41;;;;;;;2.28;1.60;;;24.10;99.90;;;;;;4116687;28;20073;-73
2021/07/26 10:09:44;;;;;;;1.50;1.40;;;24.10;99.90;;;;;;4133608;28;20037;-74
2021/07/26 10:11:46;;;;;;;7.78;2.17;;;24.20;99.90;;;;;;4135019;28;20050;-73
2021/07/26 10:13:47;;;;;;;1.98;1.63;;;24.20;99.90;;;;;;4132130;28;20037;-74
2021/07/26 10:15:49;;;;;;;1.73;1.45;;;24.20;99.90;;;;;;4118759;28;20045;-73
2021/07/26 10:17:50;;;;;;;1.58;1.33;;;24.20;99.90;;;;;;4125653;28;20058;-73
2021/07/26 10:19:51;;;;;;;3.42;1.33;;;24.20;99.90;;;;;;4120489;28;20042;-74
2021/07/26 10:21:55;;;;;;;1.98;1.35;;;24.20;99.90;;;;;;4131641;28;20487;-73
2021/07/26 10:24:05;;;;;;;1.52;1.42;;;24.30;99.90;;;;;;4133589;28;20026;-73
2021/07/26 10:26:09;;;;;;;1.65;1.42;;;24.30;99.90;;;;;;4132297;28;20049;-73
2021/07/26 10:28:22;;;;;;;3.78;1.27;;;24.30;99.90;;;;;;4128599;28;20410;-73
2021/07/26 10:30:37;;;;;;;1.73;1.40;;;24.30;99.90;;;;;;4133750;28;20679;-73
2021/07/26 10:32:38;;;;;;;1.17;1.08;;;24.30;99.90;;;;;;4121228;28;20121;-73
2021/07/26 10:34:39;;;;;;;2.15;1.60;;;24.30;99.90;;;;;;4136819;28;20057;-73
2021/07/26 10:36:43;;;;;;;1.33;1.23;;;24.30;99.90;;;;;;4137456;28;20137;-74